Time;durP1;ratioP1;P1;durP2;ratioP2;P2;SDS_P1;SDS_P2;PMS_P1;PMS_P2;Temp;Humidity;BMP_temperature;BMP_pressure;BME280_temperature;BME280_humidity;BME280_pressure;Samples;Min_cycle;Max_cycle;Signal;HPM_P1;HPM_P2
2022/09/14 00:01:39;;;;;;;5.10;2.28;;;21.00;81.50;;;;;;5037314;28;20033;-62
2022/09/14 00:04:23;;;;;;;4.15;2.20;;;21.00;81.70;;;;;;5037375;28;20034;-61
2022/09/14 00:06:48;;;;;;;2.35;2.15;;;21.00;82.50;;;;;;5033950;28;20040;-59
2022/09/14 00:09:18;;;;;;;2.47;2.28;;;21.00;81.60;;;;;;5025274;28;20412;-61
2022/09/14 00:11:44;;;;;;;4.10;2.22;;;21.00;81.90;;;;;;5023919;28;20026;-60
2022/09/14 00:14:09;;;;;;;3.25;2.60;;;21.00;81.80;;;;;;5030846;28;20485;-60
2022/09/14 00:16:38;;;;;;;2.92;2.30;;;21.00;81.90;;;;;;5031314;28;20065;-60
2022/09/14 00:19:14;;;;;;;3.70;2.42;;;20.90;82.00;;;;;;5024644;28;20400;-59
2022/09/14 00:21:41;;;;;;;4.15;2.70;;;20.90;82.10;;;;;;5029330;28;20037;-61
2022/09/14 00:24:08;;;;;;;4.25;2.70;;;20.90;82.00;;;;;;5029989;28;20159;-61
2022/09/14 00:26:34;;;;;;;4.20;2.85;;;20.90;82.20;;;;;;5025520;28;20577;-62
2022/09/14 00:29:03;;;;;;;3.13;2.60;;;20.90;82.30;;;;;;5029555;28;20112;-61
2022/09/14 00:31:32;;;;;;;4.72;2.78;;;20.90;82.40;;;;;;5029290;28;20135;-59
2022/09/14 00:33:59;;;;;;;4.32;2.60;;;20.90;82.50;;;;;;5030034;28;20098;-61
2022/09/14 00:36:27;;;;;;;4.07;2.72;;;20.90;82.40;;;;;;5032610;28;20448;-61
2022/09/14 00:38:55;;;;;;;3.38;2.63;;;20.90;82.60;;;;;;5030559;28;20039;-62
2022/09/14 00:41:23;;;;;;;4.32;3.10;;;20.90;82.60;;;;;;5025598;28;20056;-60
2022/09/14 00:44:07;;;;;;;4.30;2.78;;;20.80;82.40;;;;;;5020549;28;20029;-60
2022/09/14 00:46:41;;;;;;;4.68;2.95;;;20.80;83.00;;;;;;5029814;28;20044;-60
2022/09/14 00:49:13;;;;;;;2.72;2.33;;;20.90;82.70;;;;;;5027808;28;20448;-59
2022/09/14 00:52:08;;;;;;;3.25;2.35;;;20.90;82.70;;;;;;5025363;28;20449;-59
2022/09/14 00:54:39;;;;;;;4.07;2.50;;;20.90;82.70;;;;;;5025269;28;20488;-61
2022/09/14 00:57:08;;;;;;;3.35;2.38;;;20.90;82.20;;;;;;5032165;28;20519;-61
2022/09/14 00:59:37;;;;;;;4.72;2.47;;;20.90;82.60;;;;;;5026765;28;20345;-61
2022/09/14 01:02:03;;;;;;;4.10;2.50;;;20.90;82.40;;;;;;5029051;28;20461;-61
2022/09/14 01:04:30;;;;;;;5.18;2.67;;;20.90;82.40;;;;;;5028285;28;20030;-61
2022/09/14 01:07:21;;;;;;;3.10;2.50;;;20.90;83.40;;;;;;5030843;28;20570;-60
2022/09/14 01:10:17;;;;;;;3.38;2.30;;;20.90;83.00;;;;;;5028529;28;20623;-61
2022/09/14 01:13:01;;;;;;;2.47;2.28;;;20.90;83.10;;;;;;5026968;28;20038;-60
2022/09/14 01:15:30;;;;;;;4.07;2.43;;;21.00;83.10;;;;;;5030062;28;20065;-60
2022/09/14 01:18:00;;;;;;;3.13;2.65;;;20.90;82.40;;;;;;5029493;28;20460;-61
2022/09/14 01:20:47;;;;;;;4.50;2.72;;;21.00;82.10;;;;;;5026195;28;20052;-61
2022/09/14 01:23:48;;;;;;;6.60;3.10;;;20.90;83.00;;;;;;5028318;28;20049;-59
2022/09/14 01:26:35;;;;;;;3.90;3.50;;;20.90;82.90;;;;;;5025738;28;20080;-60
2022/09/14 01:29:17;;;;;;;3.45;3.10;;;20.90;83.60;;;;;;5029022;28;20537;-60
2022/09/14 01:31:45;;;;;;;3.65;3.35;;;20.90;83.30;;;;;;5027311;28;20033;-61
2022/09/14 01:34:14;;;;;;;3.45;3.08;;;20.90;82.70;;;;;;5029467;28;20080;-61
2022/09/14 01:36:44;;;;;;;3.10;2.80;;;20.90;83.00;;;;;;5027846;28;20041;-59
2022/09/14 01:39:11;;;;;;;4.20;2.80;;;20.90;82.90;;;;;;5031014;28;20033;-61
2022/09/14 01:41:38;;;;;;;3.20;2.90;;;20.90;83.10;;;;;;5028770;28;20037;-59
2022/09/14 01:44:22;;;;;;;2.90;2.70;;;20.90;83.10;;;;;;5027909;28;20057;-61
2022/09/14 01:46:52;;;;;;;3.30;2.78;;;20.90;83.70;;;;;;5028492;28;20099;-61
2022/09/14 01:49:26;;;;;;;3.30;2.88;;;20.90;83.40;;;;;;5028419;28;20040;-60
2022/09/14 01:52:13;;;;;;;4.28;3.25;;;20.90;83.60;;;;;;5028453;28;20041;-60
2022/09/14 01:54:53;;;;;;;4.07;2.85;;;20.90;84.00;;;;;;5028070;28;20045;-60
2022/09/14 01:57:33;;;;;;;5.32;3.05;;;20.90;84.20;;;;;;5027712;28;20133;-60
2022/09/14 02:00:05;;;;;;;3.28;2.97;;;20.90;83.90;;;;;;5026364;28;20044;-60
2022/09/14 02:02:46;;;;;;;3.45;3.15;;;20.90;83.90;;;;;;5026035;28;20329;-61
2022/09/14 02:05:21;;;;;;;4.95;3.35;;;20.80;84.50;;;;;;5028114;28;20132;-62
2022/09/14 02:07:47;;;;;;;3.38;2.97;;;20.80;84.80;;;;;;5027513;28;20082;-59
2022/09/14 02:10:15;;;;;;;5.03;3.80;;;20.80;83.80;;;;;;5030736;28;20037;-61
2022/09/14 02:12:41;;;;;;;6.68;3.60;;;20.90;84.00;;;;;;5021762;28;20048;-59
2022/09/14 02:15:09;;;;;;;5.03;3.88;;;20.80;83.80;;;;;;5029364;28;20068;-61
2022/09/14 02:17:36;;;;;;;4.03;3.63;;;20.90;84.00;;;;;;5028142;28;20037;-60
2022/09/14 02:20:06;;;;;;;3.70;3.40;;;20.90;83.70;;;;;;5026464;28;20090;-61
2022/09/14 02:22:31;;;;;;;4.07;3.75;;;20.90;83.80;;;;;;5028293;28;20405;-60
2022/09/14 02:24:57;;;;;;;4.03;3.45;;;20.90;83.50;;;;;;5026327;28;20087;-61
2022/09/14 02:27:24;;;;;;;3.53;3.22;;;20.90;83.50;;;;;;5025169;28;20398;-62
2022/09/14 02:29:50;;;;;;;4.25;3.78;;;20.80;83.60;;;;;;5026379;28;20037;-60
2022/09/14 02:32:34;;;;;;;3.65;3.15;;;20.90;83.60;;;;;;5027586;28;20616;-60
2022/09/14 02:35:06;;;;;;;3.50;3.20;;;20.80;84.40;;;;;;5007712;28;20249;-62
2022/09/14 02:37:52;;;;;;;3.28;3.08;;;20.80;83.60;;;;;;5007945;28;20141;-61
2022/09/14 02:40:30;;;;;;;7.90;3.30;;;20.80;85.30;;;;;;5008637;28;20042;-61
2022/09/14 02:42:58;;;;;;;3.40;3.10;;;20.80;83.60;;;;;;5006269;28;20585;-59
2022/09/14 02:45:41;;;;;;;3.72;2.58;;;20.80;83.60;;;;;;5005025;28;20049;-60
2022/09/14 02:48:28;;;;;;;5.10;2.70;;;20.80;84.50;;;;;;5005015;28;20037;-61
2022/09/14 02:51:32;;;;;;;3.45;2.75;;;20.80;84.50;;;;;;5007509;28;20560;-60
2022/09/14 02:54:18;;;;;;;3.88;2.58;;;20.70;84.50;;;;;;4995530;28;20038;-60
2022/09/14 02:56:47;;;;;;;3.80;2.45;;;20.70;84.20;;;;;;5007929;28;20034;-59
2022/09/14 02:59:12;;;;;;;3.55;2.40;;;20.80;84.00;;;;;;5007149;28;20025;-61
2022/09/14 03:01:38;;;;;;;3.10;2.45;;;20.70;84.00;;;;;;5007785;28;20037;-61
2022/09/14 03:04:04;;;;;;;2.97;2.40;;;20.70;84.00;;;;;;5008368;28;20101;-60
2022/09/14 03:06:29;;;;;;;2.53;2.33;;;20.70;84.10;;;;;;5007768;28;20034;-62
2022/09/14 03:08:55;;;;;;;3.60;2.42;;;20.80;84.30;;;;;;5005177;28;20102;-59
2022/09/14 03:11:20;;;;;;;3.22;2.55;;;20.80;84.40;;;;;;5008758;28;20106;-61
2022/09/14 03:13:46;;;;;;;3.78;2.80;;;20.80;84.50;;;;;;5003218;28;20060;-61
2022/09/14 03:16:14;;;;;;;3.03;2.72;;;20.80;84.30;;;;;;5008613;28;20072;-62
2022/09/14 03:18:40;;;;;;;2.80;2.60;;;20.80;84.50;;;;;;5006692;28;20521;-61
2022/09/14 03:21:09;;;;;;;3.65;2.80;;;20.90;84.30;;;;;;5008662;28;20057;-61
2022/09/14 03:23:40;;;;;;;3.17;2.53;;;20.90;84.40;;;;;;5007558;28;20041;-61
2022/09/14 03:26:11;;;;;;;4.30;2.85;;;20.80;84.40;;;;;;5008789;28;20037;-61
2022/09/14 03:28:39;;;;;;;3.00;2.80;;;20.80;84.50;;;;;;5005171;28;20026;-61
2022/09/14 03:31:07;;;;;;;3.00;2.80;;;20.80;84.30;;;;;;5006297;28;20033;-61
2022/09/14 03:33:32;;;;;;;3.15;2.95;;;20.80;84.30;;;;;;5005983;28;20038;-60
2022/09/14 03:35:58;;;;;;;4.45;3.00;;;20.80;84.40;;;;;;5007244;28;20096;-61
2022/09/14 03:38:26;;;;;;;3.58;2.75;;;20.80;84.40;;;;;;5005856;28;20060;-60
2022/09/14 03:40:52;;;;;;;3.10;2.60;;;20.80;84.40;;;;;;5008030;28;20035;-60
2022/09/14 03:43:18;;;;;;;3.00;2.78;;;20.80;84.30;;;;;;5006358;28;20103;-61
2022/09/14 03:45:44;;;;;;;3.60;3.30;;;20.80;84.50;;;;;;5003986;28;20074;-60
2022/09/14 03:48:10;;;;;;;2.70;2.55;;;20.80;84.50;;;;;;5006036;28;20406;-60
2022/09/14 03:50:37;;;;;;;2.90;2.70;;;20.80;84.50;;;;;;5005142;28;20041;-61
2022/09/14 03:53:03;;;;;;;3.75;2.95;;;20.80;84.60;;;;;;5005973;28;20038;-59
2022/09/14 03:55:29;;;;;;;3.08;2.88;;;20.80;84.60;;;;;;5004842;28;20042;-61
2022/09/14 03:57:55;;;;;;;4.10;3.15;;;20.80;84.60;;;;;;5008762;28;20130;-62
2022/09/14 04:00:21;;;;;;;2.90;2.70;;;20.80;84.60;;;;;;5005326;28;20038;-61
2022/09/14 04:02:47;;;;;;;3.20;2.90;;;20.80;84.60;;;;;;5008898;28;20116;-62
2022/09/14 04:05:12;;;;;;;2.85;2.60;;;20.80;84.50;;;;;;5005930;28;20079;-60
2022/09/14 04:07:38;;;;;;;2.90;2.65;;;20.80;84.50;;;;;;5006276;28;20066;-61
2022/09/14 04:10:05;;;;;;;2.83;2.63;;;20.80;84.50;;;;;;5005556;28;20040;-60
2022/09/14 04:12:38;;;;;;;3.55;2.60;;;20.80;85.30;;;;;;5006319;28;20034;-61
2022/09/14 04:15:05;;;;;;;2.60;2.40;;;20.80;84.80;;;;;;5005041;28;20038;-58
2022/09/14 04:17:31;;;;;;;4.35;2.80;;;20.80;84.50;;;;;;5003712;28;20521;-60
2022/09/14 04:19:57;;;;;;;2.45;2.33;;;20.80;84.50;;;;;;5004089;28;20328;-61
2022/09/14 04:22:22;;;;;;;3.75;2.30;;;20.80;84.50;;;;;;5007783;28;20113;-61
2022/09/14 04:24:49;;;;;;;2.67;2.35;;;20.80;84.60;;;;;;5005263;28;20453;-61
2022/09/14 04:27:14;;;;;;;2.53;2.42;;;20.70;84.60;;;;;;5004566;28;20092;-61
2022/09/14 04:29:40;;;;;;;3.00;2.47;;;20.70;84.60;;;;;;5005201;28;20041;-60
2022/09/14 04:32:06;;;;;;;3.08;2.58;;;20.70;84.60;;;;;;5002390;28;20037;-61
2022/09/14 04:34:31;;;;;;;4.53;2.50;;;20.70;84.80;;;;;;5007978;28;20130;-61
2022/09/14 04:36:57;;;;;;;3.05;2.47;;;20.70;84.70;;;;;;5010843;28;20112;-59
2022/09/14 04:39:22;;;;;;;2.80;2.60;;;20.70;84.70;;;;;;5013274;28;20038;-62
2022/09/14 04:41:48;;;;;;;2.70;2.50;;;20.70;84.70;;;;;;5011708;28;20052;-60
2022/09/14 04:44:14;;;;;;;3.35;2.20;;;20.80;84.80;;;;;;5013105;28;20483;-61
2022/09/14 04:46:41;;;;;;;2.38;1.98;;;20.80;84.70;;;;;;5013797;28;20512;-61
2022/09/14 04:49:07;;;;;;;1.95;1.83;;;20.70;84.60;;;;;;5010379;28;20497;-60
2022/09/14 04:51:34;;;;;;;4.00;1.70;;;20.70;84.40;;;;;;5012324;28;20030;-60
2022/09/14 04:54:01;;;;;;;1.90;1.73;;;20.80;84.40;;;;;;5014886;28;20026;-60
2022/09/14 04:56:29;;;;;;;4.50;1.85;;;20.80;84.30;;;;;;5012815;28;20531;-61
2022/09/14 04:59:00;;;;;;;3.28;2.08;;;20.80;84.10;;;;;;5018346;28;19947;-60
2022/09/14 05:01:29;;;;;;;4.82;2.00;;;20.80;84.00;;;;;;5029517;28;20068;-62
2022/09/14 05:03:55;;;;;;;2.65;1.83;;;20.80;84.00;;;;;;5029191;28;20450;-60
2022/09/14 05:06:24;;;;;;;2.80;1.88;;;20.80;83.80;;;;;;5030397;28;20029;-61
2022/09/14 05:08:50;;;;;;;2.65;2.10;;;20.80;83.80;;;;;;5033440;28;20103;-62
2022/09/14 05:11:18;;;;;;;2.58;2.00;;;20.90;83.80;;;;;;5030481;28;20037;-60
2022/09/14 05:13:45;;;;;;;4.18;2.10;;;20.90;84.00;;;;;;5035853;28;20037;-61
2022/09/14 05:16:16;;;;;;;2.47;1.95;;;20.90;84.00;;;;;;5033964;28;21409;-61
2022/09/14 05:18:43;;;;;;;5.68;2.00;;;20.90;84.30;;;;;;5030313;28;20033;-61
2022/09/14 05:21:10;;;;;;;3.60;1.90;;;21.00;84.10;;;;;;5032860;28;20036;-60
2022/09/14 05:23:36;;;;;;;4.95;1.92;;;20.90;84.10;;;;;;5034247;28;20060;-59
2022/09/14 05:26:04;;;;;;;2.05;1.85;;;21.00;84.10;;;;;;5032910;28;20485;-59
2022/09/14 05:28:31;;;;;;;2.25;2.00;;;21.00;84.20;;;;;;5030837;28;20051;-61
2022/09/14 05:30:56;;;;;;;4.93;1.85;;;21.00;84.10;;;;;;5030517;28;20045;-60
2022/09/14 05:33:22;;;;;;;2.33;1.83;;;21.00;84.10;;;;;;5031863;28;20033;-60
2022/09/14 05:35:49;;;;;;;2.10;1.80;;;21.10;84.20;;;;;;5032000;28;20040;-62
2022/09/14 05:38:14;;;;;;;4.22;1.92;;;21.00;84.20;;;;;;5031382;28;20118;-61
2022/09/14 05:40:40;;;;;;;4.80;2.00;;;21.00;84.20;;;;;;5032420;28;20087;-61
2022/09/14 05:43:06;;;;;;;4.50;1.73;;;21.00;84.20;;;;;;5029484;28;20037;-61
2022/09/14 05:45:33;;;;;;;3.40;1.70;;;21.00;84.30;;;;;;5034149;28;20084;-60
2022/09/14 05:48:03;;;;;;;3.40;1.70;;;21.00;84.30;;;;;;5033365;28;20502;-59
2022/09/14 05:50:32;;;;;;;2.90;1.90;;;21.00;84.60;;;;;;5027887;28;20077;-59
2022/09/14 05:52:58;;;;;;;2.88;2.03;;;21.00;84.60;;;;;;5031194;28;20116;-61
2022/09/14 05:55:24;;;;;;;3.13;1.85;;;21.10;84.70;;;;;;5031064;28;20172;-59
2022/09/14 05:57:50;;;;;;;2.70;1.95;;;21.00;84.60;;;;;;5033437;28;20026;-60
2022/09/14 06:00:17;;;;;;;3.00;1.60;;;21.00;84.60;;;;;;5031424;28;20061;-59
2022/09/14 06:02:50;;;;;;;2.22;1.58;;;21.10;85.00;;;;;;5033248;28;20037;-61
2022/09/14 06:05:17;;;;;;;4.15;1.67;;;21.10;85.20;;;;;;5029282;28;20037;-61
2022/09/14 06:07:43;;;;;;;3.05;1.90;;;21.10;85.00;;;;;;5032477;28;20120;-60
2022/09/14 06:10:10;;;;;;;1.92;1.77;;;21.10;85.00;;;;;;5030766;28;20040;-60
2022/09/14 06:12:36;;;;;;;2.97;1.70;;;21.20;85.00;;;;;;5030229;28;20080;-59
2022/09/14 06:15:01;;;;;;;2.65;1.83;;;21.20;85.00;;;;;;5031900;28;20045;-61
2022/09/14 06:17:30;;;;;;;2.22;1.92;;;21.20;85.00;;;;;;5030828;28;20128;-61
2022/09/14 06:19:56;;;;;;;2.70;2.08;;;21.20;85.00;;;;;;5029020;28;20064;-61
2022/09/14 06:22:21;;;;;;;3.05;2.00;;;21.20;85.00;;;;;;5032278;28;20037;-59
2022/09/14 06:24:47;;;;;;;4.82;2.10;;;21.30;85.20;;;;;;5031052;28;20135;-60
2022/09/14 06:27:14;;;;;;;3.47;1.95;;;21.30;85.20;;;;;;5029069;28;20630;-59
2022/09/14 06:29:40;;;;;;;2.08;1.90;;;21.30;85.20;;;;;;5034602;28;20042;-60
2022/09/14 06:32:05;;;;;;;2.72;1.60;;;21.30;85.10;;;;;;5034784;28;20029;-61
2022/09/14 06:34:31;;;;;;;1.90;1.70;;;21.40;85.20;;;;;;5033670;28;20112;-60
2022/09/14 06:36:57;;;;;;;3.30;2.15;;;21.30;85.10;;;;;;5033393;28;20029;-60
2022/09/14 06:39:23;;;;;;;5.07;2.00;;;21.30;85.20;;;;;;5030122;28;20037;-59
2022/09/14 06:41:50;;;;;;;2.08;1.73;;;21.30;85.30;;;;;;5034106;28;20504;-60
2022/09/14 06:44:16;;;;;;;3.00;2.05;;;21.30;85.30;;;;;;5031811;28;20125;-60
2022/09/14 06:46:42;;;;;;;3.55;2.50;;;21.40;85.60;;;;;;5046377;28;20907;-60
2022/09/14 06:49:11;;;;;;;4.22;2.20;;;21.40;85.70;;;;;;5029617;28;20116;-61
2022/09/14 06:51:41;;;;;;;5.82;2.05;;;21.40;85.80;;;;;;5029656;28;20037;-61
2022/09/14 06:54:08;;;;;;;8.13;2.25;;;21.50;85.70;;;;;;5030475;28;20025;-61
2022/09/14 06:56:37;;;;;;;3.63;2.13;;;21.50;85.60;;;;;;5025766;28;20237;-61
2022/09/14 06:59:04;;;;;;;3.63;2.08;;;21.50;85.40;;;;;;5032255;28;20045;-61
2022/09/14 07:01:30;;;;;;;2.47;2.00;;;21.60;85.30;;;;;;5030104;28;20725;-60
2022/09/14 07:03:57;;;;;;;3.60;1.90;;;21.60;85.00;;;;;;5032006;28;20036;-59
2022/09/14 07:06:25;;;;;;;4.30;2.13;;;21.70;84.80;;;;;;5029157;28;20382;-59
2022/09/14 07:08:52;;;;;;;3.38;1.90;;;21.70;84.60;;;;;;5031338;28;20033;-61
2022/09/14 07:11:20;;;;;;;4.20;2.17;;;21.70;84.50;;;;;;5026645;28;20025;-62
2022/09/14 07:13:46;;;;;;;3.83;1.95;;;21.80;84.60;;;;;;5033859;28;20033;-61
2022/09/14 07:16:13;;;;;;;3.45;1.77;;;21.80;84.40;;;;;;5029267;28;20627;-61
2022/09/14 07:18:39;;;;;;;2.45;2.20;;;21.80;84.40;;;;;;5031160;28;20107;-60
2022/09/14 07:21:17;;;;;;;4.28;2.05;;;21.90;84.50;;;;;;5027870;28;20037;-60
2022/09/14 07:23:45;;;;;;;3.13;1.90;;;21.90;84.50;;;;;;5026655;28;20057;-61
2022/09/14 07:26:13;;;;;;;4.70;1.95;;;22.00;84.40;;;;;;5030392;28;20100;-61
2022/09/14 07:28:40;;;;;;;3.70;2.10;;;22.10;84.20;;;;;;5029827;28;20033;-61
2022/09/14 07:31:15;;;;;;;7.68;2.17;;;22.10;84.30;;;;;;5029024;28;20113;-61
2022/09/14 07:33:41;;;;;;;3.20;1.98;;;22.20;84.30;;;;;;5030231;28;20041;-60
2022/09/14 07:36:08;;;;;;;2.45;1.85;;;22.20;84.10;;;;;;5031654;28;20037;-61
2022/09/14 07:38:34;;;;;;;2.60;1.75;;;22.20;84.00;;;;;;5025905;28;20165;-60
2022/09/14 07:41:00;;;;;;;2.47;1.88;;;22.30;84.00;;;;;;5030358;28;20026;-61
2022/09/14 07:43:26;;;;;;;3.28;1.75;;;22.40;83.60;;;;;;5030294;28;20067;-61
2022/09/14 07:45:52;;;;;;;2.47;2.08;;;22.50;83.60;;;;;;5031542;28;20413;-61
2022/09/14 07:48:18;;;;;;;4.00;1.90;;;22.50;83.30;;;;;;5030678;28;20044;-61
2022/09/14 07:50:46;;;;;;;2.40;1.67;;;22.60;82.90;;;;;;5029357;28;20120;-62
2022/09/14 07:53:13;;;;;;;3.65;1.88;;;22.60;82.60;;;;;;5029503;28;20089;-61
2022/09/14 07:55:39;;;;;;;2.30;1.90;;;22.70;82.50;;;;;;5027141;28;20535;-60
2022/09/14 07:58:06;;;;;;;2.38;1.90;;;22.70;82.20;;;;;;5029450;28;20113;-61
2022/09/14 08:00:32;;;;;;;2.10;1.90;;;22.80;82.00;;;;;;5028355;28;20044;-62
2022/09/14 08:02:58;;;;;;;3.80;1.77;;;22.80;82.10;;;;;;5026986;28;20378;-62
2022/09/14 08:05:25;;;;;;;6.65;2.00;;;22.80;81.80;;;;;;5030683;28;20040;-62
2022/09/14 08:07:56;;;;;;;5.82;2.13;;;22.90;81.70;;;;;;5032910;28;20394;-60
2022/09/14 08:10:23;;;;;;;3.70;1.75;;;22.90;81.30;;;;;;5031289;28;20052;-61
2022/09/14 08:12:53;;;;;;;2.08;1.73;;;22.90;81.20;;;;;;5029409;28;20038;-62
2022/09/14 08:15:21;;;;;;;4.22;1.70;;;23.00;81.30;;;;;;5035186;28;20034;-61
2022/09/14 08:17:47;;;;;;;4.75;1.67;;;23.00;81.20;;;;;;5031825;28;20048;-60
2022/09/14 08:20:14;;;;;;;6.88;1.80;;;23.10;80.90;;;;;;5031984;28;20672;-61
2022/09/14 08:22:40;;;;;;;3.78;1.90;;;23.10;80.30;;;;;;5034669;28;20025;-62
2022/09/14 08:25:06;;;;;;;3.97;1.70;;;23.20;80.30;;;;;;5032542;28;20712;-62
2022/09/14 08:27:31;;;;;;;2.00;1.80;;;23.20;80.00;;;;;;5034376;28;20141;-61
2022/09/14 08:29:57;;;;;;;4.85;1.60;;;23.20;79.50;;;;;;5033883;28;20037;-59
2022/09/14 08:32:23;;;;;;;4.28;1.90;;;23.20;79.30;;;;;;5031296;28;20033;-60
2022/09/14 08:34:50;;;;;;;3.85;1.98;;;23.30;79.40;;;;;;5033740;28;20045;-61
2022/09/14 08:37:16;;;;;;;4.68;1.95;;;23.30;79.60;;;;;;5033615;28;20079;-61
2022/09/14 08:39:42;;;;;;;2.15;1.60;;;23.40;79.80;;;;;;5032164;28;20061;-61
2022/09/14 08:42:14;;;;;;;3.63;1.83;;;23.40;79.60;;;;;;5034013;28;20037;-60
2022/09/14 08:44:49;;;;;;;4.07;1.90;;;23.40;79.30;;;;;;5031592;28;20366;-60
2022/09/14 08:47:33;;;;;;;4.63;1.90;;;23.50;79.20;;;;;;5034056;28;20533;-61
2022/09/14 08:50:18;;;;;;;3.13;1.73;;;23.60;79.30;;;;;;5033866;28;20047;-60
2022/09/14 08:52:46;;;;;;;4.32;1.80;;;23.70;79.00;;;;;;5030446;28;20029;-60
2022/09/14 08:55:36;;;;;;;3.75;1.80;;;23.80;79.40;;;;;;5034832;28;20121;-61
2022/09/14 08:58:39;;;;;;;2.38;1.67;;;23.80;78.20;;;;;;5037648;28;20045;-61
2022/09/14 09:01:27;;;;;;;3.13;1.77;;;23.90;78.20;;;;;;5038052;28;20394;-62
2022/09/14 09:04:12;;;;;;;4.07;1.90;;;24.00;77.80;;;;;;5037194;28;20059;-60
2022/09/14 09:06:49;;;;;;;2.60;1.73;;;24.00;77.10;;;;;;5036306;28;20037;-60
2022/09/14 09:09:44;;;;;;;2.92;2.03;;;24.10;77.20;;;;;;5037957;28;20933;-60
2022/09/14 09:12:22;;;;;;;1.98;1.65;;;24.20;77.10;;;;;;5039941;28;20095;-62
2022/09/14 09:14:58;;;;;;;2.00;1.70;;;24.20;77.00;;;;;;5038259;28;20118;-60
2022/09/14 09:17:32;;;;;;;3.30;1.98;;;24.30;76.50;;;;;;5039722;28;20037;-61
2022/09/14 09:20:17;;;;;;;;;;;24.40;76.10;;;;;;5039801;28;20438;-62
2022/09/14 09:22:51;;;;;;;4.97;1.52;;;24.40;76.00;;;;;;5036179;28;19960;-61
2022/09/14 09:25:25;;;;;;;3.45;1.80;;;24.40;76.10;;;;;;5037733;28;20501;-61
2022/09/14 09:27:55;;;;;;;4.28;1.77;;;24.50;75.80;;;;;;5035357;28;20037;-62
2022/09/14 09:30:20;;;;;;;4.13;1.58;;;24.50;75.60;;;;;;5038247;28;20028;-60
2022/09/14 09:32:46;;;;;;;2.92;1.55;;;24.50;75.80;;;;;;5036002;28;20040;-61
2022/09/14 09:35:21;;;;;;;3.42;1.70;;;24.60;75.50;;;;;;5037171;28;20044;-62
2022/09/14 09:37:46;;;;;;;5.28;1.65;;;24.60;75.00;;;;;;5036489;28;20037;-60
2022/09/14 09:40:24;;;;;;;3.95;1.63;;;24.70;74.70;;;;;;5036196;28;20463;-62
2022/09/14 09:43:08;;;;;;;2.35;1.67;;;24.70;73.70;;;;;;5034912;28;20080;-61
2022/09/14 09:45:53;;;;;;;7.05;1.73;;;24.80;73.00;;;;;;5035734;28;20084;-61
2022/09/14 09:48:20;;;;;;;;;;;24.80;73.30;;;;;;5036408;28;20042;-62
2022/09/14 09:51:29;;;;;;;2.30;1.38;;;24.80;73.90;;;;;;5036791;28;19920;-61
2022/09/14 09:54:02;;;;;;;3.80;1.45;;;24.90;73.40;;;;;;5043901;28;20056;-61
2022/09/14 09:56:32;;;;;;;2.78;1.65;;;25.00;73.20;;;;;;5038000;28;20037;-62
2022/09/14 09:58:58;;;;;;;3.10;1.50;;;25.00;72.80;;;;;;5034738;28;20037;-62
2022/09/14 10:01:33;;;;;;;2.15;1.63;;;25.00;73.50;;;;;;5032364;28;20045;-62
2022/09/14 10:04:15;;;;;;;3.60;1.50;;;25.10;73.20;;;;;;5034803;28;20033;-62
2022/09/14 10:06:44;;;;;;;4.43;1.48;;;25.20;72.70;;;;;;5033212;28;20090;-62
2022/09/14 10:09:21;;;;;;;5.55;1.55;;;25.20;72.40;;;;;;5034479;28;20508;-62
2022/09/14 10:11:56;;;;;;;4.18;1.65;;;25.30;71.30;;;;;;5028595;28;20560;-61
2022/09/14 10:14:27;;;;;;;2.13;1.35;;;25.30;71.60;;;;;;5033828;28;20038;-63
2022/09/14 10:17:03;;;;;;;1.90;1.50;;;25.40;72.70;;;;;;5033855;28;20523;-62
2022/09/14 10:19:29;;;;;;;5.65;1.67;;;25.40;71.40;;;;;;5031749;28;20046;-62
2022/09/14 10:22:26;;;;;;;3.55;1.30;;;25.40;71.30;;;;;;5029367;28;20112;-62
2022/09/14 10:25:00;;;;;;;3.13;1.70;;;25.40;68.80;;;;;;5028850;28;20034;-62
2022/09/14 10:27:32;;;;;;;1.70;1.38;;;25.50;70.00;;;;;;5031939;28;20541;-61
2022/09/14 10:30:01;;;;;;;3.67;1.30;;;25.50;69.90;;;;;;5030652;28;20596;-62
2022/09/14 10:32:29;;;;;;;3.42;1.25;;;25.50;69.80;;;;;;5030794;28;20038;-62
2022/09/14 10:35:13;;;;;;;2.50;1.30;;;25.50;70.00;;;;;;5027075;28;20178;-61
2022/09/14 10:38:08;;;;;;;3.03;1.40;;;25.60;69.70;;;;;;5031893;28;20052;-61
2022/09/14 10:40:42;;;;;;;4.38;1.52;;;25.60;69.40;;;;;;5031618;28;20033;-62
2022/09/14 10:43:14;;;;;;;3.63;1.33;;;25.70;69.90;;;;;;5028519;28;20053;-62
2022/09/14 10:45:49;;;;;;;3.13;1.55;;;25.70;70.10;;;;;;5031843;28;20373;-62
2022/09/14 10:48:27;;;;;;;;;;;25.80;70.10;;;;;;5031640;28;20037;-62
2022/09/14 10:51:13;;;;;;;3.63;1.50;;;25.80;69.40;;;;;;5030639;28;19970;-62
2022/09/14 10:54:07;;;;;;;3.60;1.50;;;25.90;69.20;;;;;;5030473;28;20037;-62
2022/09/14 10:57:02;;;;;;;2.85;1.70;;;25.90;68.70;;;;;;5030147;28;20036;-60
2022/09/14 10:59:27;;;;;;;4.93;1.20;;;26.00;69.40;;;;;;5029333;28;20512;-63
2022/09/14 11:02:15;;;;;;;4.28;1.58;;;26.00;69.60;;;;;;5030134;28;20037;-62
2022/09/14 11:05:10;;;;;;;2.03;1.40;;;26.00;67.20;;;;;;5031532;28;20049;-59
2022/09/14 11:07:59;;;;;;;4.60;1.60;;;26.10;67.60;;;;;;5031627;28;20033;-63
2022/09/14 11:10:50;;;;;;;2.25;1.23;;;26.10;68.00;;;;;;5029759;28;20060;-62
2022/09/14 11:13:37;;;;;;;2.50;1.20;;;26.10;67.40;;;;;;5033389;28;20033;-62
2022/09/14 11:16:22;;;;;;;2.83;1.48;;;26.10;67.80;;;;;;5030286;28;20079;-61
2022/09/14 11:18:59;;;;;;;2.45;1.40;;;26.20;68.20;;;;;;5027654;28;20098;-61
2022/09/14 11:21:28;;;;;;;4.22;1.60;;;26.20;67.40;;;;;;5031313;28;20180;-59
2022/09/14 11:24:02;;;;;;;2.05;1.50;;;26.20;67.20;;;;;;5029767;28;20040;-60
2022/09/14 11:26:36;;;;;;;4.75;1.70;;;26.20;67.00;;;;;;5029670;28;20037;-62
2022/09/14 11:29:07;;;;;;;2.33;1.30;;;26.30;67.60;;;;;;5031239;28;20040;-61
2022/09/14 11:31:55;;;;;;;2.13;1.48;;;26.30;67.20;;;;;;5028811;28;20490;-61
2022/09/14 11:34:26;;;;;;;2.10;1.17;;;26.30;66.60;;;;;;5034014;28;20043;-62
2022/09/14 11:36:58;;;;;;;3.20;1.33;;;26.30;67.20;;;;;;5029757;28;20033;-62
2022/09/14 11:39:38;;;;;;;3.10;1.40;;;26.30;67.10;;;;;;5031584;28;20525;-62
2022/09/14 11:42:29;;;;;;;2.90;1.30;;;26.30;66.60;;;;;;5031750;28;20033;-62
2022/09/14 11:45:12;;;;;;;4.13;1.40;;;26.30;66.80;;;;;;5029883;28;20035;-61
2022/09/14 11:47:44;;;;;;;3.60;1.55;;;26.40;66.60;;;;;;5034060;28;20517;-63
2022/09/14 11:50:26;;;;;;;2.55;1.40;;;26.40;66.80;;;;;;5033127;28;20040;-61
2022/09/14 11:53:02;;;;;;;4.35;1.50;;;26.40;66.10;;;;;;5034644;28;20505;-61
2022/09/14 11:55:28;;;;;;;2.15;1.40;;;26.40;66.20;;;;;;5034819;28;20378;-62
2022/09/14 11:57:55;;;;;;;5.70;1.58;;;26.40;66.70;;;;;;5035536;28;20086;-62
2022/09/14 12:00:24;;;;;;;6.90;1.52;;;26.40;66.60;;;;;;5034525;28;20029;-62
2022/09/14 12:03:13;;;;;;;3.65;1.40;;;26.40;66.90;;;;;;5033218;28;20107;-62
2022/09/14 12:05:42;;;;;;;4.10;1.38;;;26.50;66.40;;;;;;5034701;28;20036;-61
2022/09/14 12:08:27;;;;;;;3.50;1.50;;;26.50;66.60;;;;;;5036250;28;20040;-62
2022/09/14 12:11:22;;;;;;;4.80;1.42;;;26.50;66.00;;;;;;5031797;28;20661;-62
2022/09/14 12:13:47;;;;;;;4.35;1.70;;;26.50;65.50;;;;;;5035040;28;20642;-62
2022/09/14 12:16:13;;;;;;;2.45;1.52;;;26.60;66.10;;;;;;5034413;28;20171;-63
2022/09/14 12:18:40;;;;;;;4.32;1.58;;;26.60;66.00;;;;;;5032524;28;20159;-63
2022/09/14 12:21:20;;;;;;;3.15;1.50;;;26.60;65.40;;;;;;5033200;28;20083;-61
2022/09/14 12:23:50;;;;;;;7.38;1.70;;;26.60;64.40;;;;;;5034894;28;20029;-62
2022/09/14 12:26:16;;;;;;;6.75;1.40;;;26.60;65.30;;;;;;5033010;28;20429;-62
2022/09/14 12:28:49;;;;;;;5.55;1.77;;;26.60;65.20;;;;;;5036458;28;20057;-62
2022/09/14 12:31:30;;;;;;;4.10;1.50;;;26.60;65.10;;;;;;5035240;28;20044;-61
2022/09/14 12:34:14;;;;;;;2.42;1.20;;;26.60;64.60;;;;;;5034982;28;20033;-62
2022/09/14 12:36:39;;;;;;;4.70;1.50;;;26.60;64.60;;;;;;5034769;28;20175;-61
2022/09/14 12:39:22;;;;;;;4.68;1.60;;;26.60;65.20;;;;;;5034687;28;20499;-62
2022/09/14 12:41:48;;;;;;;3.22;1.40;;;26.60;64.60;;;;;;5029689;28;20048;-62
2022/09/14 12:44:39;;;;;;;2.88;1.38;;;26.60;65.10;;;;;;5034387;28;20072;-61
2022/09/14 12:47:34;;;;;;;3.92;1.88;;;26.60;64.70;;;;;;5032784;28;20037;-62
2022/09/14 12:50:08;;;;;;;3.42;1.40;;;26.60;63.90;;;;;;5030888;28;20144;-63
2022/09/14 12:52:43;;;;;;;4.30;1.60;;;26.60;64.70;;;;;;5032015;28;20443;-63
2022/09/14 12:55:36;;;;;;;3.35;1.48;;;26.60;64.70;;;;;;5035703;28;20079;-62
2022/09/14 12:58:15;;;;;;;4.68;1.42;;;26.60;64.30;;;;;;5032091;28;20041;-63
2022/09/14 13:01:01;;;;;;;6.35;1.60;;;26.60;64.60;;;;;;5032477;28;20093;-62
2022/09/14 13:03:45;;;;;;;4.10;1.38;;;26.60;64.00;;;;;;5033735;28;20030;-62
2022/09/14 13:06:12;;;;;;;1.85;1.45;;;26.60;64.90;;;;;;5031458;28;20593;-62
2022/09/14 13:08:42;;;;;;;4.38;1.70;;;26.60;65.70;;;;;;5033121;28;20037;-62
2022/09/14 13:11:08;;;;;;;4.13;1.88;;;26.60;65.60;;;;;;5030949;28;20029;-63
2022/09/14 13:13:35;;;;;;;4.60;1.70;;;26.50;66.30;;;;;;5032825;28;20044;-62